sensor_id;sensor_type;location;lat;lon;timestamp;pressure;altitude;pressure_sealevel;temperature;humidity
69855;BME280;57146;48.140;16.304;2024-03-06T00:01:21;99369.81;;;6.14;86.59
69855;BME280;57146;48.140;16.304;2024-03-06T00:03:48;99367.22;;;6.09;86.59
69855;BME280;57146;48.140;16.304;2024-03-06T00:06:15;99363.53;;;6.15;86.40
69855;BME280;57146;48.140;16.304;2024-03-06T00:08:42;99369.78;;;6.24;87.33
69855;BME280;57146;48.140;16.304;2024-03-06T00:11:10;99366.09;;;6.30;87.50
69855;BME280;57146;48.140;16.304;2024-03-06T00:13:38;99372.88;;;6.31;87.13
69855;BME280;57146;48.140;16.304;2024-03-06T00:16:06;99380.47;;;6.28;87.06
69855;BME280;57146;48.140;16.304;2024-03-06T00:18:34;99374.75;;;6.20;87.05
69855;BME280;57146;48.140;16.304;2024-03-06T00:21:01;99371.66;;;6.08;87.45
69855;BME280;57146;48.140;16.304;2024-03-06T00:23:53;99378.22;;;6.00;87.53
69855;BME280;57146;48.140;16.304;2024-03-06T00:26:21;99378.22;;;6.00;87.19
69855;BME280;57146;48.140;16.304;2024-03-06T00:28:48;99378.22;;;5.90;87.21
69855;BME280;57146;48.140;16.304;2024-03-06T00:31:16;99381.91;;;5.84;87.42
69855;BME280;57146;48.140;16.304;2024-03-06T00:33:43;99384.28;;;5.70;87.16
69855;BME280;57146;48.140;16.304;2024-03-06T00:36:10;99379.84;;;5.61;87.43
69855;BME280;57146;48.140;16.304;2024-03-06T00:38:37;99384.31;;;5.50;87.79
69855;BME280;57146;48.140;16.304;2024-03-06T00:41:06;99382.50;;;5.45;87.40
69855;BME280;57146;48.140;16.304;2024-03-06T00:43:33;99386.94;;;5.35;87.98
69855;BME280;57146;48.140;16.304;2024-03-06T00:46:00;99381.97;;;5.33;88.47
69855;BME280;57146;48.140;16.304;2024-03-06T00:48:27;99386.16;;;5.34;88.53
69855;BME280;57146;48.140;16.304;2024-03-06T00:50:54;99387.97;;;5.28;89.06
69855;BME280;57146;48.140;16.304;2024-03-06T00:53:21;99381.97;;;5.28;89.34
69855;BME280;57146;48.140;16.304;2024-03-06T00:55:49;99383.53;;;5.24;89.76
69855;BME280;57146;48.140;16.304;2024-03-06T00:58:16;99382.75;;;5.18;89.61
69855;BME280;57146;48.140;16.304;2024-03-06T01:01:08;99384.31;;;5.09;89.69
69855;BME280;57146;48.140;16.304;2024-03-06T01:03:39;99384.31;;;5.09;90.01
69855;BME280;57146;48.140;16.304;2024-03-06T01:06:06;99377.00;;;5.06;90.37
69855;BME280;57146;48.140;16.304;2024-03-06T01:08:33;99382.22;;;5.01;91.43
69855;BME280;57146;48.140;16.304;2024-03-06T01:11:01;99376.47;;;4.99;91.62
69855;BME280;57146;48.140;16.304;2024-03-06T01:13:28;99378.28;;;4.93;91.12
69855;BME280;57146;48.140;16.304;2024-03-06T01:15:55;99376.72;;;4.87;91.08
69855;BME280;57146;48.140;16.304;2024-03-06T01:18:22;99375.94;;;4.82;90.58
69855;BME280;57146;48.140;16.304;2024-03-06T01:20:49;99380.09;;;4.77;90.66
69855;BME280;57146;48.140;16.304;2024-03-06T01:23:16;99383.47;;;4.68;90.44
69855;BME280;57146;48.140;16.304;2024-03-06T01:25:44;99385.53;;;4.66;90.72
69855;BME280;57146;48.140;16.304;2024-03-06T01:28:11;99387.09;;;4.62;90.74
69855;BME280;57146;48.140;16.304;2024-03-06T01:30:38;99393.38;;;4.61;90.90
69855;BME280;57146;48.140;16.304;2024-03-06T01:33:06;99392.56;;;4.55;90.04
69855;BME280;57146;48.140;16.304;2024-03-06T01:35:34;99402.97;;;4.50;90.33
69855;BME280;57146;48.140;16.304;2024-03-06T01:38:01;99401.38;;;4.44;91.22
69855;BME280;57146;48.140;16.304;2024-03-06T01:40:31;99399.56;;;4.39;91.33
69855;BME280;57146;48.140;16.304;2024-03-06T01:42:58;99403.16;;;4.33;91.56
69855;BME280;57146;48.140;16.304;2024-03-06T01:45:25;99402.94;;;4.35;92.12
69855;BME280;57146;48.140;16.304;2024-03-06T01:47:52;99395.13;;;4.35;92.22
69855;BME280;57146;48.140;16.304;2024-03-06T01:50:19;99401.63;;;4.37;92.44
69855;BME280;57146;48.140;16.304;2024-03-06T01:52:47;99404.25;;;4.42;92.39
69855;BME280;57146;48.140;16.304;2024-03-06T01:55:14;99406.59;;;4.44;93.02
69855;BME280;57146;48.140;16.304;2024-03-06T01:57:41;99402.97;;;4.45;93.74
69855;BME280;57146;48.140;16.304;2024-03-06T02:00:08;99405.03;;;4.48;94.92
69855;BME280;57146;48.140;16.304;2024-03-06T02:02:37;99405.84;;;4.48;94.93
69855;BME280;57146;48.140;16.304;2024-03-06T02:05:04;99408.69;;;4.47;94.52
69855;BME280;57146;48.140;16.304;2024-03-06T02:07:58;99405.59;;;4.50;95.17
69855;BME280;57146;48.140;16.304;2024-03-06T02:10:27;99411.06;;;4.48;95.73
69855;BME280;57146;48.140;16.304;2024-03-06T02:12:54;99417.06;;;4.49;95.68
69855;BME280;57146;48.140;16.304;2024-03-06T02:15:26;99408.47;;;4.48;96.04
69855;BME280;57146;48.140;16.304;2024-03-06T02:17:54;99413.41;;;4.50;96.47
69855;BME280;57146;48.140;16.304;2024-03-06T02:20:24;99413.41;;;4.55;96.48
69855;BME280;57146;48.140;16.304;2024-03-06T02:22:52;99415.75;;;4.51;96.69
69855;BME280;57146;48.140;16.304;2024-03-06T02:25:21;99418.88;;;4.48;96.52
69855;BME280;57146;48.140;16.304;2024-03-06T02:27:48;99417.56;;;4.46;96.66
69855;BME280;57146;48.140;16.304;2024-03-06T02:30:19;99418.88;;;4.48;96.64
69855;BME280;57146;48.140;16.304;2024-03-06T02:32:46;99416.78;;;4.45;96.35
69855;BME280;57146;48.140;16.304;2024-03-06T02:35:17;99415.00;;;4.56;96.48
69855;BME280;57146;48.140;16.304;2024-03-06T02:37:44;99417.84;;;4.49;96.73
69855;BME280;57146;48.140;16.304;2024-03-06T02:40:11;99416.81;;;4.55;96.57
69855;BME280;57146;48.140;16.304;2024-03-06T02:42:38;99420.22;;;4.56;97.12
69855;BME280;57146;48.140;16.304;2024-03-06T02:45:06;99415.53;;;4.63;97.38
69855;BME280;57146;48.140;16.304;2024-03-06T02:47:34;99417.91;;;4.75;96.98
69855;BME280;57146;48.140;16.304;2024-03-06T02:50:03;99416.63;;;4.83;97.42
69855;BME280;57146;48.140;16.304;2024-03-06T02:52:31;99409.84;;;4.87;97.75
69855;BME280;57146;48.140;16.304;2024-03-06T02:54:57;99420.03;;;4.88;97.76
69855;BME280;57146;48.140;16.304;2024-03-06T02:57:27;99423.41;;;4.94;96.93
69855;BME280;57146;48.140;16.304;2024-03-06T02:59:57;99421.63;;;4.99;97.14
69855;BME280;57146;48.140;16.304;2024-03-06T03:02:24;99425.28;;;5.03;97.39
69855;BME280;57146;48.140;16.304;2024-03-06T03:04:52;99423.72;;;5.02;97.17
69855;BME280;57146;48.140;16.304;2024-03-06T03:07:19;99423.19;;;5.00;96.99
69855;BME280;57146;48.140;16.304;2024-03-06T03:09:46;99427.63;;;5.00;96.51
69855;BME280;57146;48.140;16.304;2024-03-06T03:12:16;99425.00;;;4.95;95.72
69855;BME280;57146;48.140;16.304;2024-03-06T03:14:42;99429.41;;;4.89;95.73
69855;BME280;57146;48.140;16.304;2024-03-06T03:17:09;99428.84;;;4.72;95.98
69855;BME280;57146;48.140;16.304;2024-03-06T03:19:37;99434.81;;;4.62;96.28
69855;BME280;57146;48.140;16.304;2024-03-06T03:22:04;99436.91;;;4.65;96.01
69855;BME280;57146;48.140;16.304;2024-03-06T03:24:31;99432.22;;;4.67;96.40
69855;BME280;57146;48.140;16.304;2024-03-06T03:26:58;99441.34;;;4.65;96.35
69855;BME280;57146;48.140;16.304;2024-03-06T03:29:24;99438.72;;;4.60;95.66
69855;BME280;57146;48.140;16.304;2024-03-06T03:31:53;99436.13;;;4.60;96.22
69855;BME280;57146;48.140;16.304;2024-03-06T03:34:24;99446.78;;;4.58;95.54
69855;BME280;57146;48.140;16.304;2024-03-06T03:36:52;99444.69;;;4.55;95.85
69855;BME280;57146;48.140;16.304;2024-03-06T03:39:19;99447.84;;;4.62;96.07
69855;BME280;57146;48.140;16.304;2024-03-06T03:41:48;99442.94;;;4.71;95.97
69855;BME280;57146;48.140;16.304;2024-03-06T03:44:16;99449.75;;;4.77;96.09
69855;BME280;57146;48.140;16.304;2024-03-06T03:46:43;99449.22;;;4.80;96.32
69855;BME280;57146;48.140;16.304;2024-03-06T03:49:14;99451.06;;;4.85;95.83
69855;BME280;57146;48.140;16.304;2024-03-06T03:51:41;99455.22;;;4.86;96.00
69855;BME280;57146;48.140;16.304;2024-03-06T03:54:09;99454.97;;;4.87;95.33
69855;BME280;57146;48.140;16.304;2024-03-06T03:56:35;99454.72;;;4.89;95.27
69855;BME280;57146;48.140;16.304;2024-03-06T03:59:04;99457.84;;;4.91;94.81
69855;BME280;57146;48.140;16.304;2024-03-06T04:01:31;99457.06;;;4.90;94.30
69855;BME280;57146;48.140;16.304;2024-03-06T04:03:58;99460.44;;;4.86;93.82
69855;BME280;57146;48.140;16.304;2024-03-06T04:06:25;99462.78;;;4.82;93.55
69855;BME280;57146;48.140;16.304;2024-03-06T04:08:53;99464.06;;;4.79;93.24
69855;BME280;57146;48.140;16.304;2024-03-06T04:11:20;99462.50;;;4.73;93.05
69855;BME280;57146;48.140;16.304;2024-03-06T04:13:47;99457.53;;;4.67;93.26
69855;BME280;57146;48.140;16.304;2024-03-06T04:16:18;99463.50;;;4.62;93.10
69855;BME280;57146;48.140;16.304;2024-03-06T04:18:46;99464.25;;;4.57;93.21
69855;BME280;57146;48.140;16.304;2024-03-06T04:21:13;99463.75;;;4.61;93.81
69855;BME280;57146;48.140;16.304;2024-03-06T04:23:41;99465.31;;;4.62;93.53
69855;BME280;57146;48.140;16.304;2024-03-06T04:26:08;99459.59;;;4.65;93.97
69855;BME280;57146;48.140;16.304;2024-03-06T04:28:34;99463.75;;;4.66;93.28
69855;BME280;57146;48.140;16.304;2024-03-06T04:31:04;99470.56;;;4.67;93.48
69855;BME280;57146;48.140;16.304;2024-03-06T04:33:31;99464.31;;;4.68;92.83
69855;BME280;57146;48.140;16.304;2024-03-06T04:36:02;99463.25;;;4.69;93.07
69855;BME280;57146;48.140;16.304;2024-03-06T04:38:29;99460.66;;;4.69;92.73
69855;BME280;57146;48.140;16.304;2024-03-06T04:40:56;99466.38;;;4.66;92.30
69855;BME280;57146;48.140;16.304;2024-03-06T04:43:23;99474.75;;;4.68;92.41
69855;BME280;57146;48.140;16.304;2024-03-06T04:45:51;99481.50;;;4.69;92.11
69855;BME280;57146;48.140;16.304;2024-03-06T04:48:18;99473.69;;;4.69;91.42
69855;BME280;57146;48.140;16.304;2024-03-06T04:50:45;99472.13;;;4.63;91.48
69855;BME280;57146;48.140;16.304;2024-03-06T04:53:12;99478.91;;;4.64;91.62
69855;BME280;57146;48.140;16.304;2024-03-06T04:55:39;99472.13;;;4.63;91.18
69855;BME280;57146;48.140;16.304;2024-03-06T04:58:06;99474.19;;;4.66;90.93
69855;BME280;57146;48.140;16.304;2024-03-06T05:00:33;99483.84;;;4.65;91.01
69855;BME280;57146;48.140;16.304;2024-03-06T05:03:00;99477.84;;;4.65;90.93
69855;BME280;57146;48.140;16.304;2024-03-06T05:05:44;99481.00;;;4.67;90.48
69855;BME280;57146;48.140;16.304;2024-03-06T05:08:29;99476.28;;;4.69;90.32
69855;BME280;57146;48.140;16.304;2024-03-06T05:11:13;99486.72;;;4.69;89.74
69855;BME280;57146;48.140;16.304;2024-03-06T05:13:59;99489.34;;;4.69;89.67
69855;BME280;57146;48.140;16.304;2024-03-06T05:16:44;99489.63;;;4.72;88.92
69855;BME280;57146;48.140;16.304;2024-03-06T05:19:29;99489.38;;;4.74;88.81
69855;BME280;57146;48.140;16.304;2024-03-06T05:22:15;99488.59;;;4.73;88.49
69855;BME280;57146;48.140;16.304;2024-03-06T05:25:00;99482.84;;;4.71;88.46
69855;BME280;57146;48.140;16.304;2024-03-06T05:27:44;99486.22;;;4.72;87.87
69855;BME280;57146;48.140;16.304;2024-03-06T05:30:28;99489.09;;;4.70;87.96
69855;BME280;57146;48.140;16.304;2024-03-06T05:33:13;99488.56;;;4.68;88.22
69855;BME280;57146;48.140;16.304;2024-03-06T05:35:57;99487.22;;;4.66;88.05
69855;BME280;57146;48.140;16.304;2024-03-06T05:38:41;99491.16;;;4.63;88.52
69855;BME280;57146;48.140;16.304;2024-03-06T05:41:26;99483.06;;;4.65;88.29
69855;BME280;57146;48.140;16.304;2024-03-06T05:44:10;99492.16;;;4.62;88.63
69855;BME280;57146;48.140;16.304;2024-03-06T05:46:54;99496.59;;;4.62;88.36
69855;BME280;57146;48.140;16.304;2024-03-06T05:49:39;99494.28;;;4.60;88.02
69855;BME280;57146;48.140;16.304;2024-03-06T05:52:25;99499.72;;;4.59;88.01
69855;BME280;57146;48.140;16.304;2024-03-06T05:55:10;99507.81;;;4.57;88.02
69855;BME280;57146;48.140;16.304;2024-03-06T05:57:54;99515.38;;;4.59;88.21
69855;BME280;57146;48.140;16.304;2024-03-06T06:00:42;99511.47;;;4.56;88.49
69855;BME280;57146;48.140;16.304;2024-03-06T06:03:10;99517.47;;;4.56;88.09
69855;BME280;57146;48.140;16.304;2024-03-06T06:05:38;99514.06;;;4.56;87.69
69855;BME280;57146;48.140;16.304;2024-03-06T06:08:05;99511.97;;;4.58;87.50
69855;BME280;57146;48.140;16.304;2024-03-06T06:10:32;99518.50;;;4.61;87.29
69855;BME280;57146;48.140;16.304;2024-03-06T06:12:59;99516.44;;;4.63;87.09
69855;BME280;57146;48.140;16.304;2024-03-06T06:15:26;99516.97;;;4.65;86.44
69855;BME280;57146;48.140;16.304;2024-03-06T06:17:53;99528.72;;;4.67;86.13
69855;BME280;57146;48.140;16.304;2024-03-06T06:20:20;99520.41;;;4.70;86.31
69855;BME280;57146;48.140;16.304;2024-03-06T06:22:47;99527.72;;;4.73;86.20
69855;BME280;57146;48.140;16.304;2024-03-06T06:25:14;99530.59;;;4.77;85.70
69855;BME280;57146;48.140;16.304;2024-03-06T06:27:40;99535.81;;;4.82;85.34
69855;BME280;57146;48.140;16.304;2024-03-06T06:30:08;99540.81;;;4.89;85.22
69855;BME280;57146;48.140;16.304;2024-03-06T06:32:35;99541.59;;;4.94;84.88
69855;BME280;57146;48.140;16.304;2024-03-06T06:35:02;99535.38;;;5.00;83.85
69855;BME280;57146;48.140;16.304;2024-03-06T06:37:29;99537.75;;;5.07;84.26
69855;BME280;57146;48.140;16.304;2024-03-06T06:39:56;99546.09;;;5.14;83.88
69855;BME280;57146;48.140;16.304;2024-03-06T06:42:23;99542.22;;;5.22;83.36
69855;BME280;57146;48.140;16.304;2024-03-06T06:44:51;99537.81;;;5.27;82.82
69855;BME280;57146;48.140;16.304;2024-03-06T06:47:18;99539.13;;;5.35;82.39
69855;BME280;57146;48.140;16.304;2024-03-06T06:49:45;99543.81;;;5.43;81.40
69855;BME280;57146;48.140;16.304;2024-03-06T06:52:11;99541.50;;;5.52;80.71
69855;BME280;57146;48.140;16.304;2024-03-06T06:54:38;99547.25;;;5.59;80.40
69855;BME280;57146;48.140;16.304;2024-03-06T06:57:05;99542.03;;;5.69;79.65
69855;BME280;57146;48.140;16.304;2024-03-06T06:59:32;99541.25;;;5.79;77.88
69855;BME280;57146;48.140;16.304;2024-03-06T07:02:00;99547.53;;;5.88;78.00
69855;BME280;57146;48.140;16.304;2024-03-06T07:04:27;99545.97;;;5.97;77.31
69855;BME280;57146;48.140;16.304;2024-03-06T07:06:54;99548.09;;;6.06;76.85
69855;BME280;57146;48.140;16.304;2024-03-06T07:09:21;99547.53;;;6.14;76.35
69855;BME280;57146;48.140;16.304;2024-03-06T07:11:48;99550.94;;;6.24;75.30
69855;BME280;57146;48.140;16.304;2024-03-06T07:14:15;99551.19;;;6.33;75.38
69855;BME280;57146;48.140;16.304;2024-03-06T07:16:43;99549.59;;;6.42;74.63
69855;BME280;57146;48.140;16.304;2024-03-06T07:19:10;99547.75;;;6.48;73.70
69855;BME280;57146;48.140;16.304;2024-03-06T07:21:38;99543.03;;;6.55;73.69
69855;BME280;57146;48.140;16.304;2024-03-06T07:24:05;99543.00;;;6.60;73.73
69855;BME280;57146;48.140;16.304;2024-03-06T07:26:35;99551.09;;;6.69;72.84
69855;BME280;57146;48.140;16.304;2024-03-06T07:29:02;99542.16;;;6.75;72.37
69855;BME280;57146;48.140;16.304;2024-03-06T07:31:29;99553.13;;;6.82;72.25
69855;BME280;57146;48.140;16.304;2024-03-06T07:33:56;99552.59;;;6.90;72.41
69855;BME280;57146;48.140;16.304;2024-03-06T07:36:23;99556.75;;;6.96;71.93
69855;BME280;57146;48.140;16.304;2024-03-06T07:38:50;99554.88;;;7.07;72.13
69855;BME280;57146;48.140;16.304;2024-03-06T07:41:21;99559.03;;;7.13;71.64
69855;BME280;57146;48.140;16.304;2024-03-06T07:43:49;99557.97;;;7.19;70.55
69855;BME280;57146;48.140;16.304;2024-03-06T07:46:16;99550.84;;;7.25;70.50
69855;BME280;57146;48.140;16.304;2024-03-06T07:48:44;99560.25;;;7.31;70.50
69855;BME280;57146;48.140;16.304;2024-03-06T07:51:11;99553.16;;;7.37;70.07
69855;BME280;57146;48.140;16.304;2024-03-06T07:53:38;99559.91;;;7.48;70.06
69855;BME280;57146;48.140;16.304;2024-03-06T07:56:06;99559.84;;;7.53;69.67
69855;BME280;57146;48.140;16.304;2024-03-06T07:58:32;99559.31;;;7.56;69.03
69855;BME280;57146;48.140;16.304;2024-03-06T08:00:59;99559.00;;;7.63;68.48
69855;BME280;57146;48.140;16.304;2024-03-06T08:03:26;99562.09;;;7.70;68.41
69855;BME280;57146;48.140;16.304;2024-03-06T08:05:53;99568.66;;;7.73;67.71
69855;BME280;57146;48.140;16.304;2024-03-06T08:08:21;99576.44;;;7.83;67.91
69855;BME280;57146;48.140;16.304;2024-03-06T08:10:50;99573.53;;;7.84;67.19
69855;BME280;57146;48.140;16.304;2024-03-06T08:13:17;99571.91;;;7.94;67.51
69855;BME280;57146;48.140;16.304;2024-03-06T08:15:45;99576.00;;;8.05;67.29
69855;BME280;57146;48.140;16.304;2024-03-06T08:18:12;99566.00;;;8.07;66.89
69855;BME280;57146;48.140;16.304;2024-03-06T08:20:40;99573.56;;;8.13;65.79
69855;BME280;57146;48.140;16.304;2024-03-06T08:23:11;99569.28;;;8.23;65.90
69855;BME280;57146;48.140;16.304;2024-03-06T08:25:38;99575.81;;;8.25;64.46
69855;BME280;57146;48.140;16.304;2024-03-06T08:28:06;99580.78;;;8.27;64.64
69855;BME280;57146;48.140;16.304;2024-03-06T08:30:34;99573.09;;;8.35;64.17
69855;BME280;57146;48.140;16.304;2024-03-06T08:33:01;99576.63;;;8.55;64.46
69855;BME280;57146;48.140;16.304;2024-03-06T08:35:29;99577.09;;;8.57;63.61
69855;BME280;57146;48.140;16.304;2024-03-06T08:37:59;99567.34;;;8.62;63.27
69855;BME280;57146;48.140;16.304;2024-03-06T08:40:26;99568.91;;;8.63;62.54
69855;BME280;57146;48.140;16.304;2024-03-06T08:42:53;99575.91;;;8.73;63.03
69855;BME280;57146;48.140;16.304;2024-03-06T08:45:22;99575.56;;;8.80;62.27
69855;BME280;57146;48.140;16.304;2024-03-06T08:47:49;99570.81;;;8.82;61.84
69855;BME280;57146;48.140;16.304;2024-03-06T08:50:16;99565.56;;;8.82;61.69
69855;BME280;57146;48.140;16.304;2024-03-06T08:52:46;99572.59;;;8.86;61.71
69855;BME280;57146;48.140;16.304;2024-03-06T08:55:17;99567.06;;;8.88;60.71
69855;BME280;57146;48.140;16.304;2024-03-06T08:57:43;99573.31;;;8.92;61.35
69855;BME280;57146;48.140;16.304;2024-03-06T09:00:11;99560.75;;;8.89;60.56
69855;BME280;57146;48.140;16.304;2024-03-06T09:02:38;99573.06;;;8.94;59.73
69855;BME280;57146;48.140;16.304;2024-03-06T09:05:06;99563.00;;;9.01;59.59
69855;BME280;57146;48.140;16.304;2024-03-06T09:07:36;99580.81;;;9.04;59.43
69855;BME280;57146;48.140;16.304;2024-03-06T09:10:04;99571.44;;;9.17;59.76
69855;BME280;57146;48.140;16.304;2024-03-06T09:12:31;99581.81;;;9.27;60.16
69855;BME280;57146;48.140;16.304;2024-03-06T09:14:59;99574.50;;;9.24;59.18
69855;BME280;57146;48.140;16.304;2024-03-06T09:17:26;99575.34;;;9.19;58.41
69855;BME280;57146;48.140;16.304;2024-03-06T09:19:54;99574.28;;;9.20;58.82
69855;BME280;57146;48.140;16.304;2024-03-06T09:22:39;99580.53;;;9.24;58.44
69855;BME280;57146;48.140;16.304;2024-03-06T09:25:06;99568.25;;;9.20;58.65
69855;BME280;57146;48.140;16.304;2024-03-06T09:27:39;99575.84;;;9.21;58.18
69855;BME280;57146;48.140;16.304;2024-03-06T09:30:06;99578.19;;;9.23;58.59
69855;BME280;57146;48.140;16.304;2024-03-06T09:32:35;99576.66;;;9.22;58.17
69855;BME280;57146;48.140;16.304;2024-03-06T09:35:04;99571.66;;;9.20;58.34
69855;BME280;57146;48.140;16.304;2024-03-06T09:37:31;99570.47;;;9.31;59.48
69855;BME280;57146;48.140;16.304;2024-03-06T09:39:57;99581.13;;;9.40;58.70
69855;BME280;57146;48.140;16.304;2024-03-06T09:42:25;99582.41;;;9.43;58.33
69855;BME280;57146;48.140;16.304;2024-03-06T09:44:52;99575.09;;;9.40;57.18
69855;BME280;57146;48.140;16.304;2024-03-06T09:47:22;99563.31;;;9.37;57.05
69855;BME280;57146;48.140;16.304;2024-03-06T09:49:51;99565.06;;;9.42;57.51
69855;BME280;57146;48.140;16.304;2024-03-06T09:52:18;99565.56;;;9.44;57.31
69855;BME280;57146;48.140;16.304;2024-03-06T09:54:47;99566.28;;;9.49;57.73
69855;BME280;57146;48.140;16.304;2024-03-06T09:57:17;99561.31;;;9.48;57.40
69855;BME280;57146;48.140;16.304;2024-03-06T09:59:44;99568.63;;;9.51;57.84
69855;BME280;57146;48.140;16.304;2024-03-06T10:02:31;99560.88;;;9.59;57.15
69855;BME280;57146;48.140;16.304;2024-03-06T10:05:02;99560.31;;;9.63;57.06
69855;BME280;57146;48.140;16.304;2024-03-06T10:07:29;99561.06;;;9.63;57.25
69855;BME280;57146;48.140;16.304;2024-03-06T10:09:57;99556.03;;;9.67;58.19
69855;BME280;57146;48.140;16.304;2024-03-06T10:12:23;99562.00;;;9.72;57.93
69855;BME280;57146;48.140;16.304;2024-03-06T10:14:52;99564.63;;;9.72;57.22
69855;BME280;57146;48.140;16.304;2024-03-06T10:17:20;99553.03;;;9.73;57.38
69855;BME280;57146;48.140;16.304;2024-03-06T10:19:47;99550.41;;;9.73;57.36
69855;BME280;57146;48.140;16.304;2024-03-06T10:22:40;99550.41;;;9.73;56.95
69855;BME280;57146;48.140;16.304;2024-03-06T10:25:07;99554.13;;;9.72;57.15
69855;BME280;57146;48.140;16.304;2024-03-06T10:30:33;99550.41;;;9.73;57.11
69855;BME280;57146;48.140;16.304;2024-03-06T10:33:04;99557.63;;;9.81;58.95
69855;BME280;57146;48.140;16.304;2024-03-06T10:35:32;99549.47;;;9.83;57.27
69855;BME280;57146;48.140;16.304;2024-03-06T10:38:01;99554.44;;;9.84;56.56
69855;BME280;57146;48.140;16.304;2024-03-06T10:40:33;99553.19;;;9.82;56.27
69855;BME280;57146;48.140;16.304;2024-03-06T10:43:06;99549.97;;;9.85;56.74
69855;BME280;57146;48.140;16.304;2024-03-06T10:46:16;99548.63;;;9.88;57.04
69855;BME280;57146;48.140;16.304;2024-03-06T10:48:37;99551.25;;;9.88;56.20
69855;BME280;57146;48.140;16.304;2024-03-06T10:51:07;99545.97;;;9.88;55.75
69855;BME280;57146;48.140;16.304;2024-03-06T10:53:38;99549.69;;;9.87;56.26
69855;BME280;57146;48.140;16.304;2024-03-06T10:56:08;99554.75;;;9.83;56.15
69855;BME280;57146;48.140;16.304;2024-03-06T10:58:36;99549.19;;;9.84;56.50
69855;BME280;57146;48.140;16.304;2024-03-06T11:01:06;99547.63;;;9.83;56.60
69855;BME280;57146;48.140;16.304;2024-03-06T11:03:35;99545.50;;;9.86;56.05
69855;BME280;57146;48.140;16.304;2024-03-06T11:06:03;99541.22;;;9.90;55.80
69855;BME280;57146;48.140;16.304;2024-03-06T11:08:31;99546.97;;;9.92;56.02
69855;BME280;57146;48.140;16.304;2024-03-06T11:11:21;99542.47;;;9.92;55.58
69855;BME280;57146;48.140;16.304;2024-03-06T11:13:59;99540.47;;;10.03;55.86
69855;BME280;57146;48.140;16.304;2024-03-06T11:16:30;99539.88;;;10.06;55.17
69855;BME280;57146;48.140;16.304;2024-03-06T11:19:08;99534.63;;;10.06;55.43
69855;BME280;57146;48.140;16.304;2024-03-06T11:21:45;99530.34;;;10.10;55.34
69855;BME280;57146;48.140;16.304;2024-03-06T11:24:16;99530.94;;;10.07;55.46
69855;BME280;57146;48.140;16.304;2024-03-06T11:27:04;99519.72;;;10.01;54.73
69855;BME280;57146;48.140;16.304;2024-03-06T11:30:03;99523.72;;;9.99;55.02
69855;BME280;57146;48.140;16.304;2024-03-06T11:32:31;99524.41;;;10.04;54.75
69855;BME280;57146;48.140;16.304;2024-03-06T11:34:58;99518.78;;;10.11;55.48
69855;BME280;57146;48.140;16.304;2024-03-06T11:37:25;99522.66;;;10.14;54.77
69855;BME280;57146;48.140;16.304;2024-03-06T11:39:59;99516.53;;;10.18;54.70
69855;BME280;57146;48.140;16.304;2024-03-06T11:42:34;99513.91;;;10.18;54.40
69855;BME280;57146;48.140;16.304;2024-03-06T11:45:12;99516.75;;;10.22;54.45
69855;BME280;57146;48.140;16.304;2024-03-06T11:48:01;99509.44;;;10.19;54.48
69855;BME280;57146;48.140;16.304;2024-03-06T11:50:30;99518.09;;;10.19;54.37
69855;BME280;57146;48.140;16.304;2024-03-06T11:52:57;99507.28;;;10.21;54.56
69855;BME280;57146;48.140;16.304;2024-03-06T11:55:24;99510.72;;;10.21;54.76
69855;BME280;57146;48.140;16.304;2024-03-06T11:57:52;99514.38;;;10.20;53.92
69855;BME280;57146;48.140;16.304;2024-03-06T12:00:24;99507.78;;;10.23;54.64
69855;BME280;57146;48.140;16.304;2024-03-06T12:02:51;99507.47;;;10.24;53.98
69855;BME280;57146;48.140;16.304;2024-03-06T12:05:18;99502.75;;;10.26;54.04
69855;BME280;57146;48.140;16.304;2024-03-06T12:07:47;99501.19;;;10.25;54.70
69855;BME280;57146;48.140;16.304;2024-03-06T12:10:14;99496.91;;;10.29;54.27
69855;BME280;57146;48.140;16.304;2024-03-06T12:12:41;99501.59;;;10.33;54.46
69855;BME280;57146;48.140;16.304;2024-03-06T12:15:12;99492.72;;;10.28;54.65
69855;BME280;57146;48.140;16.304;2024-03-06T12:17:44;99499.88;;;10.23;54.28
69855;BME280;57146;48.140;16.304;2024-03-06T12:20:13;99496.47;;;10.22;54.30
69855;BME280;57146;48.140;16.304;2024-03-06T12:22:48;99496.16;;;10.24;53.98
69855;BME280;57146;48.140;16.304;2024-03-06T12:27:45;99484.31;;;10.26;54.04
69855;BME280;57146;48.140;16.304;2024-03-06T12:30:15;99488.22;;;10.29;54.28
69855;BME280;57146;48.140;16.304;2024-03-06T12:32:44;99484.91;;;10.37;54.46
69855;BME280;57146;48.140;16.304;2024-03-06T12:35:11;99493.59;;;10.38;54.74
69855;BME280;57146;48.140;16.304;2024-03-06T12:37:38;99496.41;;;10.41;54.99
69855;BME280;57146;48.140;16.304;2024-03-06T12:40:05;99498.19;;;10.46;54.28
69855;BME280;57146;48.140;16.304;2024-03-06T12:42:32;99488.91;;;10.48;54.34
69855;BME280;57146;48.140;16.304;2024-03-06T12:44:59;99496.22;;;10.51;54.51
69855;BME280;57146;48.140;16.304;2024-03-06T12:47:26;99490.47;;;10.49;53.63
69855;BME280;57146;48.140;16.304;2024-03-06T12:49:53;99489.09;;;10.52;53.85
69855;BME280;57146;48.140;16.304;2024-03-06T12:52:21;99497.69;;;10.58;54.40
69855;BME280;57146;48.140;16.304;2024-03-06T12:54:47;99497.38;;;10.59;54.29
69855;BME280;57146;48.140;16.304;2024-03-06T12:57:14;99497.88;;;10.61;54.55
69855;BME280;57146;48.140;16.304;2024-03-06T12:59:41;99505.47;;;10.63;54.93
69855;BME280;57146;48.140;16.304;2024-03-06T13:02:09;99496.91;;;10.57;54.66
69855;BME280;57146;48.140;16.304;2024-03-06T13:04:35;99501.78;;;10.50;54.62
69855;BME280;57146;48.140;16.304;2024-03-06T13:07:02;99500.13;;;10.40;54.33
69855;BME280;57146;48.140;16.304;2024-03-06T13:09:30;99491.34;;;10.31;54.54
69855;BME280;57146;48.140;16.304;2024-03-06T13:11:57;99496.78;;;10.35;54.99
69855;BME280;57146;48.140;16.304;2024-03-06T13:14:24;99496.03;;;10.34;55.35
69855;BME280;57146;48.140;16.304;2024-03-06T13:16:51;99497.00;;;10.38;55.36